sensor_id;sensor_type;location;lat;lon;timestamp;pressure;altitude;pressure_sealevel;temperature;humidity
3832;BME280;12460;42.662;23.288;2023-05-02T00:10:28;94827.72;;;13.42;56.22
3832;BME280;12460;42.662;23.288;2023-05-02T00:25:32;94839.47;;;13.65;56.25
3832;BME280;12460;42.662;23.288;2023-05-02T00:40:48;94854.97;;;13.64;55.81
3832;BME280;12460;42.662;23.288;2023-05-02T00:56:01;94865.13;;;13.77;55.91
3832;BME280;12460;42.662;23.288;2023-05-02T01:11:22;94860.31;;;13.70;56.11
3832;BME280;12460;42.662;23.288;2023-05-02T01:42:05;94838.84;;;13.23;58.11
3832;BME280;12460;42.662;23.288;2023-05-02T01:57:11;94833.66;;;12.78;60.31
3832;BME280;12460;42.662;23.288;2023-05-02T02:12:23;94822.72;;;12.40;61.41
3832;BME280;12460;42.662;23.288;2023-05-02T02:27:32;94836.19;;;12.24;62.19
3832;BME280;12460;42.662;23.288;2023-05-02T03:13:50;94890.88;;;12.78;59.82
3832;BME280;12460;42.662;23.288;2023-05-02T03:28:57;94891.97;;;13.00;59.25
3832;BME280;12460;42.662;23.288;2023-05-02T03:44:08;94902.91;;;15.44;53.31
3832;BME280;12460;42.662;23.288;2023-05-02T03:59:14;94901.06;;;18.44;45.76
3832;BME280;12460;42.662;23.288;2023-05-02T04:14:19;94901.03;;;19.00;43.19
3832;BME280;12460;42.662;23.288;2023-05-02T04:29:27;94896.53;;;18.62;43.51
3832;BME280;12460;42.662;23.288;2023-05-02T04:44:33;94896.16;;;17.58;44.88
3832;BME280;12460;42.662;23.288;2023-05-02T04:59:38;94888.69;;;16.20;47.95
3832;BME280;12460;42.662;23.288;2023-05-02T05:14:43;94895.75;;;15.52;49.39
3832;BME280;12460;42.662;23.288;2023-05-02T05:29:47;94904.13;;;15.60;49.74
3832;BME280;12460;42.662;23.288;2023-05-02T05:44:52;94912.94;;;15.73;49.11
3832;BME280;12460;42.662;23.288;2023-05-02T05:59:57;94918.09;;;16.25;47.79
3832;BME280;12460;42.662;23.288;2023-05-02T06:15:05;94940.97;;;16.86;46.01
3832;BME280;12460;42.662;23.288;2023-05-02T06:30:12;94914.41;;;17.33;43.87
3832;BME280;12460;42.662;23.288;2023-05-02T06:45:16;94927.31;;;18.42;41.19
3832;BME280;12460;42.662;23.288;2023-05-02T07:00:21;94940.72;;;19.19;39.45
3832;BME280;12460;42.662;23.288;2023-05-02T07:15:26;94928.91;;;18.90;39.00
3832;BME280;12460;42.662;23.288;2023-05-02T07:30:30;94936.97;;;20.11;36.60
3832;BME280;12460;42.662;23.288;2023-05-02T07:45:35;94962.28;;;19.57;36.15
3832;BME280;12460;42.662;23.288;2023-05-02T08:00:40;94950.09;;;19.91;36.17
3832;BME280;12460;42.662;23.288;2023-05-02T08:15:44;94938.63;;;21.03;34.65
3832;BME280;12460;42.662;23.288;2023-05-02T08:30:49;94930.84;;;21.99;33.15
3832;BME280;12460;42.662;23.288;2023-05-02T08:45:58;94938.69;;;23.31;32.07
3832;BME280;12460;42.662;23.288;2023-05-02T09:01:18;94935.94;;;21.60;33.42
3832;BME280;12460;42.662;23.288;2023-05-02T09:16:27;94922.00;;;22.96;31.11
3832;BME280;12460;42.662;23.288;2023-05-02T09:31:34;94897.09;;;23.63;29.93
3832;BME280;12460;42.662;23.288;2023-05-02T09:46:47;94901.19;;;22.80;30.62
3832;BME280;12460;42.662;23.288;2023-05-02T10:02:00;94892.25;;;22.74;31.21
3832;BME280;12460;42.662;23.288;2023-05-02T10:17:13;94870.81;;;21.60;32.02
3832;BME280;12460;42.662;23.288;2023-05-02T10:32:17;94864.16;;;22.41;30.11
3832;BME280;12460;42.662;23.288;2023-05-02T10:47:24;94844.78;;;23.18;28.35
3832;BME280;12460;42.662;23.288;2023-05-02T11:18:07;94828.44;;;22.89;28.03
3832;BME280;12460;42.662;23.288;2023-05-02T11:33:14;94826.13;;;22.70;27.80
3832;BME280;12460;42.662;23.288;2023-05-02T11:48:22;94800.59;;;23.56;27.35
3832;BME280;12460;42.662;23.288;2023-05-02T12:03:32;94774.44;;;23.83;27.76
3832;BME280;12460;42.662;23.288;2023-05-02T12:18:37;94775.13;;;23.00;28.68
3832;BME280;12460;42.662;23.288;2023-05-02T12:33:44;94747.47;;;22.44;28.88
3832;BME280;12460;42.662;23.288;2023-05-02T12:49:02;94729.28;;;22.68;28.92
3832;BME280;12460;42.662;23.288;2023-05-02T13:04:08;94713.81;;;22.44;29.23
3832;BME280;12460;42.662;23.288;2023-05-02T13:19:14;94719.63;;;22.15;29.08
3832;BME280;12460;42.662;23.288;2023-05-02T13:34:18;94722.94;;;21.65;29.46
3832;BME280;12460;42.662;23.288;2023-05-02T13:49:23;94711.69;;;21.26;29.64
3832;BME280;12460;42.662;23.288;2023-05-02T14:04:28;94717.44;;;21.12;29.88
3832;BME280;12460;42.662;23.288;2023-05-02T14:19:32;94720.09;;;21.08;30.20
3832;BME280;12460;42.662;23.288;2023-05-02T14:34:37;94712.28;;;20.95;30.24
3832;BME280;12460;42.662;23.288;2023-05-02T14:49:42;94705.59;;;21.04;29.56
3832;BME280;12460;42.662;23.288;2023-05-02T15:04:47;94714.72;;;20.73;30.28
3832;BME280;12460;42.662;23.288;2023-05-02T15:19:53;94703.50;;;20.37;30.55
3832;BME280;12460;42.662;23.288;2023-05-02T15:35:00;94704.84;;;20.36;30.32
3832;BME280;12460;42.662;23.288;2023-05-02T15:50:06;94691.66;;;20.03;29.79
3832;BME280;12460;42.662;23.288;2023-05-02T16:05:11;94694.34;;;19.74;29.86
3832;BME280;12460;42.662;23.288;2023-05-02T16:20:17;94676.56;;;19.37;30.36
3832;BME280;12460;42.662;23.288;2023-05-02T16:35:22;94708.31;;;18.95;31.76
3832;BME280;12460;42.662;23.288;2023-05-02T16:50:27;94699.59;;;18.67;32.14
3832;BME280;12460;42.662;23.288;2023-05-02T17:05:31;94724.47;;;18.32;32.86
3832;BME280;12460;42.662;23.288;2023-05-02T17:20:37;94725.84;;;17.96;32.95
3832;BME280;12460;42.662;23.288;2023-05-02T17:35:41;94749.44;;;17.76;33.65
3832;BME280;12460;42.662;23.288;2023-05-02T17:50:45;94763.09;;;17.56;34.37
3832;BME280;12460;42.662;23.288;2023-05-02T18:05:51;94761.22;;;17.28;34.58
3832;BME280;12460;42.662;23.288;2023-05-02T18:20:57;94785.59;;;17.10;35.53
3832;BME280;12460;42.662;23.288;2023-05-02T18:36:01;94776.47;;;16.90;36.06
3832;BME280;12460;42.662;23.288;2023-05-02T18:51:06;94791.16;;;16.56;36.70
3832;BME280;12460;42.662;23.288;2023-05-02T19:06:12;94801.50;;;16.51;35.84
3832;BME280;12460;42.662;23.288;2023-05-02T19:21:17;94817.38;;;16.35;36.69
3832;BME280;12460;42.662;23.288;2023-05-02T19:36:23;94786.91;;;16.36;36.14
3832;BME280;12460;42.662;23.288;2023-05-02T19:51:29;94769.50;;;16.20;36.53
3832;BME280;12460;42.662;23.288;2023-05-02T20:06:36;94805.41;;;16.06;37.08
3832;BME280;12460;42.662;23.288;2023-05-02T20:21:40;94786.50;;;15.80;37.46
3832;BME280;12460;42.662;23.288;2023-05-02T20:36:45;94795.78;;;15.61;38.88
3832;BME280;12460;42.662;23.288;2023-05-02T20:51:50;94804.16;;;15.30;39.79
3832;BME280;12460;42.662;23.288;2023-05-02T21:06:55;94783.56;;;15.11;40.42
3832;BME280;12460;42.662;23.288;2023-05-02T21:22:00;94788.31;;;14.99;41.00
3832;BME280;12460;42.662;23.288;2023-05-02T21:37:05;94824.69;;;14.83;41.99
3832;BME280;12460;42.662;23.288;2023-05-02T21:52:09;94825.09;;;14.70;42.10
3832;BME280;12460;42.662;23.288;2023-05-02T22:07:13;94810.09;;;14.41;42.76
3832;BME280;12460;42.662;23.288;2023-05-02T22:22:18;94833.31;;;14.30;42.88
3832;BME280;12460;42.662;23.288;2023-05-02T22:37:22;94854.09;;;14.25;42.98
3832;BME280;12460;42.662;23.288;2023-05-02T22:52:25;94838.31;;;13.95;43.25
3832;BME280;12460;42.662;23.288;2023-05-02T23:07:33;94847.19;;;13.82;43.03
3832;BME280;12460;42.662;23.288;2023-05-02T23:22:43;94815.72;;;13.68;42.82
3832;BME280;12460;42.662;23.288;2023-05-02T23:37:48;94819.31;;;13.52;41.72
3832;BME280;12460;42.662;23.288;2023-05-02T23:52:54;94801.75;;;13.26;41.88
